| Ora | Descriere | Temp | Se simte | Precipitatii | Umiditate | Vant |
|---|---|---|---|---|---|---|
| 00:00 | Senin | 11.7° | 10.5° | 0% | 61% | SSE 11.2 KM/H |
| 01:00 | Senin | 11.2° | 10.2° | 0% | 62% | SSE 9.4 KM/H |
| 02:00 | Senin | 10.4° | 9.5° | 0% | 64% | S 7.9 KM/H |
| 03:00 | Senin | 10° | 9° | 0% | 66% | SSE 7.9 KM/H |
| 04:00 | Senin | 9.5° | 8.5° | 0% | 67% | SSE 7.9 KM/H |
| 05:00 | 9.6° | 8.7° | 0% | 66% | SSE 7.2 KM/H | |
| 06:00 | 9.7° | 8.6° | 0% | 66% | SSE 8.3 KM/H | |
| 07:00 | Senin | 10.8° | 9.9° | 0% | 66% | SSE 7.9 KM/H |
| 08:00 | Senin | 13.3° | 12.7° | 0% | 58% | S 9.4 KM/H |
| 09:00 | Senin | 15.5° | 15.5° | 0% | 53% | S 9 KM/H |
| 10:00 | Senin | 17.5° | 17.5° | 0% | 49% | SSW 9.7 KM/H |
| 11:00 | 19.4° | 19.4° | 0% | 45% | S 10.1 KM/H | |
| 12:00 | 20.6° | 20.7° | 0% | 43% | S 11.5 KM/H | |
| 13:00 | Senin | 22.1° | 24° | 0% | 40% | S 12.2 KM/H |
| 14:00 | Senin | 23.1° | 24.2° | 0% | 37% | S 12.6 KM/H |
| 15:00 | Senin | 23.6° | 24.4° | 0% | 36% | S 12.6 KM/H |
| 16:00 | Senin | 23.8° | 24.4° | 0% | 35% | SSE 12.2 KM/H |
| 17:00 | Senin | 23.7° | 24.4° | 0% | 36% | SSE 12.6 KM/H |
| 18:00 | Senin | 23.2° | 24.3° | 0% | 37% | S 13.3 KM/H |
| 19:00 | Senin | 21.9° | 22° | 0% | 44% | S 13.3 KM/H |
| 20:00 | Senin | 17.9° | 17.9° | 0% | 55% | S 13.7 KM/H |
| 21:00 | Senin | 15.7° | 15.7° | 0% | 58% | SSE 13.7 KM/H |
| 22:00 | Senin | 14.9° | 14.2° | 0% | 60% | SSE 12.6 KM/H |
| 23:00 | Senin | 14.1° | 13.3° | 0% | 65% | SSE 12.6 KM/H |